^^
Meteo Knjazevac Station Historical Data
Daily Summary for June 13, 2021 Units:  English    Metric   Both
Daily Weekly Monthly Yearly Custom
  High: Low: Average:
Temperature: 66.6 °F 55.8 °F 60.3 °F
Dew Point: 55.7 °F 51.3 °F 53.4 °F
Humidity: 86% 68% 78%
Wind Speed: 1mph 0mph 0.4mph
Wind Gust: 3mph - -
Wind- - West
Pressure: 30.25 in 30.20 in -
Precipitation: 0.00 in    
Historical Graphs
 
 
Tabular Data for June 13, 2021
Time Temperature Dew Point Pressure Wind Wind Speed Wind Gust Humidity Rainfall Rate (Hourly) solar Conditions
00:00 66.6 °F 55.7 °F 30.20 in Calm   2 mph 68% 0.00 in 0 W/m2
00:10 66.1 °F 55.6 °F 30.20 in Calm   2 mph 69% 0.00 in 0 W/m2
00:20 65.7 °F 55.6 °F 30.20 in WSW 1 mph 2 mph 70% 0.00 in 0 W/m2
00:30 65.3 °F 55.3 °F 30.21 in SW 1 mph 3 mph 70% 0.00 in 0 W/m2
00:40 64.9 °F 54.9 °F 30.21 in Calm   2 mph 70% 0.00 in 0 W/m2
00:50 64.4 °F 55.2 °F 30.21 in Calm   3 mph 72% 0.00 in 0 W/m2
01:00 64.2 °F 55 °F 30.20 in Calm   2 mph 72% 0.00 in 0 W/m2
01:10 64 °F 54.8 °F 30.21 in WSW 1 mph 2 mph 72% 0.00 in 0 W/m2
01:20 63.7 °F 54.9 °F 30.21 in West 1 mph 3 mph 73% 0.00 in 0 W/m2
01:30 63.3 °F 54.5 °F 30.20 in Calm   2 mph 73% 0.00 in 0 W/m2
01:40 63 °F 54.5 °F 30.21 in WSW 1 mph 2 mph 74% 0.00 in 0 W/m2
01:50 62.4 °F 54.4 °F 30.21 in Calm   2 mph 75% 0.00 in 0 W/m2
02:00 61.7 °F 53.7 °F 30.21 in West 1 mph 2 mph 75% 0.00 in 0 W/m2
02:10 61.3 °F 54.1 °F 30.21 in Calm   3 mph 77% 0.00 in 0 W/m2
02:20 61 °F 53.8 °F 30.21 in WSW 1 mph 2 mph 77% 0.00 in 0 W/m2
02:30 60.6 °F 53.7 °F 30.21 in Calm   2 mph 78% 0.00 in 0 W/m2
02:40 60.4 °F 53.5 °F 30.21 in NW 1 mph 2 mph 78% 0.00 in 0 W/m2
02:50 59.9 °F 53.4 °F 30.21 in Calm   2 mph 79% 0.00 in 0 W/m2
03:00 59.5 °F 53 °F 30.22 in NW 1 mph 2 mph 79% 0.00 in 0 W/m2
03:10 59.5 °F 53 °F 30.22 in Calm   1 mph 79% 0.00 in 0 W/m2
03:20 59.5 °F 53.4 °F 30.22 in Calm   2 mph 80% 0.00 in 0 W/m2
03:30 59.2 °F 53 °F 30.22 in Calm   2 mph 80% 0.00 in 0 W/m2
03:40 58.8 °F 52.7 °F 30.22 in WSW 1 mph 2 mph 80% 0.00 in 0 W/m2
03:50 58.9 °F 52.7 °F 30.22 in Calm   2 mph 80% 0.00 in 0 W/m2
04:00 58.6 °F 52.8 °F 30.22 in West 1 mph 2 mph 81% 0.00 in 0 W/m2
04:10 58.5 °F 52.6 °F 30.22 in Calm   2 mph 81% 0.00 in 0 W/m2
04:20 58.1 °F 52.3 °F 30.23 in NW 1 mph 3 mph 81% 0.00 in 0 W/m2
04:30 57.7 °F 51.9 °F 30.23 in Calm   2 mph 81% 0.00 in 0 W/m2
04:40 57.6 °F 52.4 °F 30.23 in Calm   2 mph 83% 0.00 in 0 W/m2
04:50 57.2 °F 52.1 °F 30.23 in Calm   2 mph 83% 0.00 in 0 W/m2
05:00 57 °F 51.9 °F 30.24 in Calm   1 mph 83% 0.00 in 0 W/m2
05:10 56.7 °F 51.9 °F 30.24 in West 1 mph 2 mph 84% 0.00 in 0 W/m2
05:20 56.3 °F 51.5 °F 30.25 in West 1 mph 3 mph 84% 0.00 in 0 W/m2
05:30 56.1 °F 51.7 °F 30.25 in West 1 mph 3 mph 85% 0.00 in 0 W/m2
05:40 55.9 °F 51.5 °F 30.25 in Calm   2 mph 85% 0.00 in 7 W/m2
05:50 55.8 °F 51.4 °F 30.25 in Calm   1 mph 85% 0.00 in 14 W/m2
06:00 55.8 °F 51.3 °F 30.25 in West 1 mph 2 mph 85% 0.00 in 23 W/m2
06:10 55.8 °F 51.6 °F 30.25 in Calm   2 mph 86% 0.00 in 33 W/m2
Knjazevac, Serbia
Compliments of Weather Underground - 2 mb